Time;durP1;ratioP1;P1;durP2;ratioP2;P2;SDS_P1;SDS_P2;PMS_P1;PMS_P2;Temp;Humidity;BMP_temperature;BMP_pressure;BME280_temperature;BME280_humidity;BME280_pressure;Samples;Min_cycle;Max_cycle;Signal;HPM_P1;HPM_P2
2021/12/06 00:00:04;;;;;;;;;;;21.00;36.80;;;;;;5156603;27;20069;-60
2021/12/06 00:02:29;;;;;;;;;;;21.00;36.80;;;;;;5156225;27;19932;-60
2021/12/06 00:04:55;;;;;;;;;;;21.00;36.80;;;;;;5156180;27;19914;-60
2021/12/06 00:07:21;;;;;;;;;;;21.00;36.80;;;;;;5156011;27;19911;-59
2021/12/06 00:09:47;;;;;;;;;;;21.00;36.80;;;;;;5156210;27;19911;-59
2021/12/06 00:12:14;;;;;;;;;;;21.00;36.80;;;;;;5156016;27;20373;-59
2021/12/06 00:14:41;;;;;;;;;;;21.00;36.80;;;;;;5156085;27;19907;-59
2021/12/06 00:17:10;;;;;;;;;;;21.00;36.80;;;;;;5155934;27;19914;-59
2021/12/06 00:19:36;;;;;;;;;;;20.90;36.80;;;;;;5155753;27;19918;-59
2021/12/06 00:22:03;;;;;;;;;;;20.90;36.80;;;;;;5156044;27;19907;-59
2021/12/06 00:24:28;;;;;;;;;;;20.90;36.80;;;;;;5155578;27;19963;-59
2021/12/06 00:26:54;;;;;;;;;;;20.90;36.80;;;;;;5155226;27;19907;-59
2021/12/06 00:29:20;;;;;;;;;;;20.90;36.80;;;;;;5155666;27;19917;-59
2021/12/06 00:31:45;;;;;;;;;;;20.80;36.80;;;;;;5155928;27;20017;-59
2021/12/06 00:34:15;;;;;;;;;;;20.90;36.80;;;;;;5155831;27;19953;-58
2021/12/06 00:36:44;;;;;;;;;;;20.90;36.80;;;;;;5155806;27;20251;-59
2021/12/06 00:39:11;;;;;;;;;;;20.90;36.80;;;;;;5155771;27;19914;-59
2021/12/06 00:41:37;;;;;;;;;;;20.80;36.80;;;;;;5155812;27;19914;-59
2021/12/06 00:44:03;;;;;;;;;;;20.90;36.80;;;;;;5155684;27;20002;-59
2021/12/06 00:46:28;;;;;;;;;;;20.80;36.80;;;;;;5155418;27;19946;-59
2021/12/06 00:48:54;;;;;;;;;;;20.80;36.80;;;;;;5155485;27;20013;-59
2021/12/06 00:51:19;;;;;;;;;;;20.80;36.80;;;;;;5155541;27;20372;-59
2021/12/06 00:53:45;;;;;;;;;;;20.80;36.80;;;;;;5155524;27;19911;-59
2021/12/06 00:56:11;;;;;;;;;;;20.80;36.80;;;;;;5155483;27;19907;-59
2021/12/06 00:58:37;;;;;;;;;;;20.70;36.80;;;;;;5155074;27;20290;-59
2021/12/06 01:01:03;;;;;;;;;;;20.70;36.80;;;;;;5155076;27;19914;-59
2021/12/06 01:03:31;;;;;;;;;;;20.70;36.80;;;;;;5155135;27;20285;-59
2021/12/06 01:05:57;;;;;;;;;;;20.70;36.80;;;;;;5155016;27;19994;-59
2021/12/06 01:08:22;;;;;;;;;;;20.70;36.80;;;;;;5155367;27;19992;-59
2021/12/06 01:10:48;;;;;;;;;;;20.70;36.80;;;;;;5155316;27;19914;-59
2021/12/06 01:13:14;;;;;;;;;;;20.70;36.80;;;;;;5155534;27;19907;-59
2021/12/06 01:15:39;;;;;;;;;;;20.70;36.70;;;;;;5155692;27;19913;-59
2021/12/06 01:18:06;;;;;;;;;;;20.70;36.80;;;;;;5155215;27;20373;-58
2021/12/06 01:20:34;;;;;;;;;;;20.70;36.80;;;;;;5155059;27;20374;-59
2021/12/06 01:23:06;;;;;;;;;;;20.70;36.70;;;;;;5155203;27;19907;-59
2021/12/06 01:25:42;;;;;;;;;;;20.60;36.80;;;;;;5154976;27;19914;-59
2021/12/06 01:31:13;;;;;;;;;;;20.60;36.80;;;;;;5098654;27;19942;-59
2021/12/06 01:39:16;;;;;;;;;;;20.60;36.80;;;;;;5159001;27;19914;-59
2021/12/06 01:41:48;;;;;;;;;;;20.60;36.80;;;;;;5159148;27;19907;-59
2021/12/06 01:44:19;;;;;;;;;;;20.50;36.80;;;;;;5159163;27;20319;-58
2021/12/06 01:46:49;;;;;;;;;;;20.50;36.70;;;;;;5158849;27;19960;-59
2021/12/06 01:49:17;;;;;;;;;;;20.50;36.70;;;;;;5159025;27;19956;-59
2021/12/06 01:51:44;;;;;;;;;;;20.50;36.80;;;;;;5159020;27;20014;-59
2021/12/06 01:54:09;;;;;;;;;;;20.50;36.70;;;;;;5158903;27;19914;-59
2021/12/06 01:56:35;;;;;;;;;;;20.50;36.70;;;;;;5140087;27;19911;-59
2021/12/06 01:59:01;;;;;;;;;;;20.50;36.70;;;;;;5158421;27;19919;-59
2021/12/06 02:01:26;;;;;;;;;;;20.50;36.70;;;;;;5158442;27;19932;-59
2021/12/06 02:03:52;;;;;;;;;;;20.50;36.70;;;;;;5158426;27;19907;-59
2021/12/06 02:06:18;;;;;;;;;;;20.50;36.70;;;;;;5158647;27;19939;-60
2021/12/06 02:08:43;;;;;;;;;;;20.50;36.70;;;;;;5158353;27;19922;-58
2021/12/06 02:11:10;;;;;;;;;;;20.50;36.70;;;;;;5158579;27;20001;-59
2021/12/06 02:13:54;;;;;;;;;;;20.50;36.70;;;;;;5158321;27;20455;-59
2021/12/06 02:16:29;;;;;;;;;;;20.40;36.70;;;;;;5158454;27;19907;-59
2021/12/06 02:19:01;;;;;;;;;;;20.40;36.70;;;;;;5158384;27;19907;-59
2021/12/06 02:21:30;;;;;;;;;;;20.40;36.70;;;;;;5158414;27;19986;-60
2021/12/06 02:23:56;;;;;;;;;;;20.40;36.70;;;;;;5158299;27;19966;-59
2021/12/06 02:26:22;;;;;;;;;;;20.40;36.70;;;;;;5158114;27;19907;-59
2021/12/06 02:28:48;;;;;;;;;;;20.40;36.70;;;;;;5158116;27;19988;-58
2021/12/06 02:31:15;;;;;;;;;;;20.40;36.60;;;;;;5157871;27;19907;-58
2021/12/06 02:33:40;;;;;;;;;;;20.40;36.70;;;;;;5157834;27;19914;-58
2021/12/06 02:36:06;;;;;;;;;;;20.40;36.60;;;;;;5157934;27;19911;-59
2021/12/06 02:38:32;;;;;;;;;;;20.40;36.70;;;;;;5157905;27;20243;-59
2021/12/06 02:40:57;;;;;;;;;;;20.40;36.70;;;;;;5157834;27;19914;-58
2021/12/06 02:43:23;;;;;;;;;;;20.40;36.60;;;;;;5157693;27;20318;-59
2021/12/06 02:45:48;;;;;;;;;;;20.30;36.60;;;;;;5157963;27;19911;-60
2021/12/06 02:48:14;;;;;;;;;;;20.30;36.60;;;;;;5156876;27;20311;-59
2021/12/06 02:50:46;;;;;;;;;;;20.30;36.60;;;;;;5157670;27;19995;-59
2021/12/06 02:53:11;;;;;;;;;;;20.30;36.60;;;;;;5157620;27;19907;-59
2021/12/06 02:55:38;;;;;;;;;;;20.30;36.60;;;;;;5157449;27;19907;-59
2021/12/06 02:58:14;;;;;;;;;;;20.30;36.60;;;;;;5157425;27;19958;-59
2021/12/06 03:00:51;;;;;;;;;;;20.30;36.60;;;;;;5157621;27;19926;-60
2021/12/06 03:03:18;;;;;;;;;;;20.30;36.60;;;;;;5157460;27;19907;-59
2021/12/06 03:05:44;;;;;;;;;;;20.30;36.50;;;;;;5157253;27;19907;-59
2021/12/06 03:08:10;;;;;;;;;;;20.30;36.50;;;;;;5157132;27;20373;-59
2021/12/06 03:10:35;;;;;;;;;;;20.30;36.50;;;;;;5157129;27;19911;-59
2021/12/06 03:13:00;;;;;;;;;;;20.20;36.60;;;;;;5157196;27;19912;-59
2021/12/06 03:15:26;;;;;;;;;;;20.20;36.60;;;;;;5157355;27;19959;-59
2021/12/06 03:17:52;;;;;;;;;;;20.20;36.60;;;;;;5157034;27;19908;-58
2021/12/06 03:20:17;;;;;;;;;;;20.20;36.60;;;;;;5157270;27;19918;-59
2021/12/06 03:22:43;;;;;;;;;;;20.20;36.60;;;;;;5156966;27;19907;-59
2021/12/06 03:25:10;;;;;;;;;;;20.20;36.50;;;;;;5156740;27;20274;-57
2021/12/06 03:27:35;;;;;;;;;;;20.20;36.50;;;;;;5156681;27;19920;-58
2021/12/06 03:30:01;;;;;;;;;;;20.20;36.60;;;;;;5156747;27;20350;-58
2021/12/06 03:32:26;;;;;;;;;;;20.10;36.60;;;;;;5156826;27;19998;-58
2021/12/06 03:34:52;;;;;;;;;;;20.10;36.50;;;;;;5157008;27;20030;-58
2021/12/06 03:37:17;;;;;;;;;;;20.10;36.50;;;;;;5156944;27;19907;-58
2021/12/06 03:39:48;;;;;;;;;;;20.10;36.60;;;;;;5156563;27;20274;-58
2021/12/06 03:42:15;;;;;;;;;;;20.10;36.60;;;;;;5156807;27;19914;-58
2021/12/06 03:44:42;;;;;;;;;;;20.10;36.50;;;;;;5157047;27;19914;-58
2021/12/06 03:47:09;;;;;;;;;;;20.10;36.50;;;;;;5157000;27;19912;-58
2021/12/06 03:49:35;;;;;;;;;;;20.10;36.50;;;;;;5156674;27;20274;-58
2021/12/06 03:52:01;;;;;;;;;;;20.10;36.50;;;;;;5156294;27;19907;-58
2021/12/06 03:54:28;;;;;;;;;;;20.10;36.50;;;;;;5156380;27;19907;-58
2021/12/06 03:56:55;;;;;;;;;;;20.10;36.50;;;;;;5155976;27;19907;-59
2021/12/06 03:59:21;;;;;;;;;;;20.10;36.40;;;;;;5155870;27;20014;-58
2021/12/06 04:01:47;;;;;;;;;;;20.10;36.50;;;;;;5155378;27;19907;-58
2021/12/06 04:04:14;;;;;;;;;;;20.00;36.40;;;;;;5156234;27;19911;-59
2021/12/06 04:06:40;;;;;;;;;;;20.00;36.40;;;;;;5156554;27;19908;-58
2021/12/06 04:09:06;;;;;;;;;;;20.00;36.40;;;;;;5156138;27;19930;-58
2021/12/06 04:11:32;;;;;;;;;;;20.00;36.40;;;;;;5156190;27;19907;-58
2021/12/06 04:13:58;;;;;;;;;;;20.00;36.40;;;;;;5156166;27;19920;-58
2021/12/06 04:16:23;;;;;;;;;;;20.00;36.40;;;;;;5156096;27;19986;-58
2021/12/06 04:18:49;;;;;;;;;;;20.00;36.40;;;;;;5156121;27;19907;-59
2021/12/06 04:21:15;;;;;;;;;;;20.00;36.40;;;;;;5155710;27;19907;-57
2021/12/06 04:23:41;;;;;;;;;;;20.00;36.30;;;;;;5155723;27;19959;-58
2021/12/06 04:26:07;;;;;;;;;;;20.00;36.40;;;;;;5155667;27;19951;-58
2021/12/06 04:28:34;;;;;;;;;;;20.00;36.30;;;;;;5137085;27;19915;-59
2021/12/06 04:31:00;;;;;;;;;;;20.00;36.30;;;;;;5156093;27;20316;-58
2021/12/06 04:33:26;;;;;;;;;;;20.00;36.30;;;;;;5155650;27;19919;-59
2021/12/06 04:35:51;;;;;;;;;;;20.00;36.30;;;;;;5155808;27;19907;-58
2021/12/06 04:38:17;;;;;;;;;;;20.00;36.30;;;;;;5155672;27;19907;-60
2021/12/06 04:40:42;;;;;;;;;;;19.90;36.30;;;;;;5155397;27;19914;-59
2021/12/06 04:43:09;;;;;;;;;;;20.00;36.30;;;;;;5155345;27;19954;-60
2021/12/06 04:45:35;;;;;;;;;;;19.90;36.30;;;;;;5155637;27;19908;-58
2021/12/06 04:48:01;;;;;;;;;;;19.90;36.30;;;;;;5155270;27;20468;-58
2021/12/06 04:50:28;;;;;;;;;;;19.90;36.30;;;;;;5155124;27;19954;-59
2021/12/06 04:52:54;;;;;;;;;;;19.90;36.20;;;;;;5155561;27;19907;-59
2021/12/06 04:55:40;;;;;;;;;;;19.90;36.30;;;;;;5155385;27;19908;-59
2021/12/06 04:58:06;;;;;;;;;;;19.90;36.30;;;;;;5136754;27;19972;-58
2021/12/06 05:00:38;;;;;;;;;;;19.90;36.20;;;;;;5155204;27;19941;-58
2021/12/06 05:03:05;;;;;;;;;;;19.90;36.20;;;;;;5155403;27;19907;-58
2021/12/06 05:05:51;;;;;;;;;;;19.90;36.20;;;;;;5155146;27;19915;-58
2021/12/06 05:08:23;;;;;;;;;;;19.90;36.20;;;;;;5155195;27;20013;-58
2021/12/06 05:10:49;;;;;;;;;;;19.90;36.20;;;;;;5154926;27;20303;-59
2021/12/06 05:13:15;;;;;;;;;;;19.90;36.20;;;;;;5161663;27;19987;-60
2021/12/06 05:15:40;;;;;;;;;;;19.90;36.10;;;;;;5162146;27;19907;-58
2021/12/06 05:18:06;;;;;;;;;;;19.90;36.10;;;;;;5162206;27;19933;-58
2021/12/06 05:20:32;;;;;;;;;;;19.90;36.10;;;;;;5161903;27;20399;-59
2021/12/06 05:22:57;;;;;;;;;;;19.90;36.10;;;;;;5161942;27;20262;-58
2021/12/06 05:25:25;;;;;;;;;;;19.90;36.10;;;;;;5162060;27;19907;-59
2021/12/06 05:27:51;;;;;;;;;;;20.00;36.00;;;;;;5161771;27;19997;-59
2021/12/06 05:30:19;;;;;;;;;;;20.00;36.00;;;;;;5161731;27;20341;-60
2021/12/06 05:32:45;;;;;;;;;;;20.00;36.00;;;;;;5162182;27;19943;-59
2021/12/06 05:35:11;;;;;;;;;;;20.00;36.00;;;;;;5161748;27;20362;-60
2021/12/06 05:37:38;;;;;;;;;;;20.00;36.00;;;;;;5162082;27;19915;-60
2021/12/06 05:40:06;;;;;;;;;;;20.00;35.90;;;;;;5161656;27;19907;-59
2021/12/06 05:42:31;;;;;;;;;;;20.00;35.90;;;;;;5161599;27;19913;-60
2021/12/06 05:44:57;;;;;;;;;;;20.10;35.80;;;;;;5162186;27;20381;-59
2021/12/06 05:47:23;;;;;;;;;;;20.10;35.90;;;;;;5161622;27;19911;-60
2021/12/06 05:49:48;;;;;;;;;;;20.10;35.90;;;;;;5161589;27;19907;-59
2021/12/06 05:52:14;;;;;;;;;;;20.10;35.80;;;;;;5161944;27;19907;-60
2021/12/06 05:54:39;;;;;;;;;;;20.10;35.70;;;;;;5161747;27;19907;-60
2021/12/06 05:57:11;;;;;;;;;;;20.10;35.80;;;;;;5161917;27;20052;-60
2021/12/06 05:59:37;;;;;;;;;;;20.20;35.90;;;;;;5161390;27;19923;-60
2021/12/06 06:02:03;;;;;;;;;;;20.20;35.80;;;;;;5161907;27;19956;-59
2021/12/06 06:04:28;;;;;;;;;;;20.10;35.70;;;;;;5161676;27;19907;-58
2021/12/06 06:06:54;;;;;;;;;;;20.20;35.70;;;;;;5161545;27;19908;-60
2021/12/06 06:09:20;;;;;;;;;;;20.20;35.70;;;;;;5161781;27;19956;-60
2021/12/06 06:11:45;;;;;;;;;;;20.20;35.70;;;;;;5161484;27;19911;-59
2021/12/06 06:14:11;;;;;;;;;;;20.20;35.80;;;;;;5161679;27;19939;-59
2021/12/06 06:16:47;;;;;;;;;;;20.20;35.70;;;;;;5161623;27;19907;-60
2021/12/06 06:19:13;;;;;;;;;;;20.30;35.80;;;;;;5161600;27;19959;-59
2021/12/06 06:21:38;;;;;;;;;;;20.20;35.70;;;;;;5161254;27;19950;-60
2021/12/06 06:24:04;;;;;;;;;;;20.30;35.70;;;;;;5158042;27;20006;-60
2021/12/06 06:26:29;;;;;;;;;;;20.30;35.60;;;;;;5158224;27;19949;-60
2021/12/06 06:28:55;;;;;;;;;;;20.30;35.70;;;;;;5157951;27;19922;-58
2021/12/06 06:31:20;;;;;;;;;;;20.30;35.60;;;;;;5157883;27;19932;-59
2021/12/06 06:33:46;;;;;;;;;;;20.30;35.70;;;;;;5157851;27;19918;-60
2021/12/06 06:36:12;;;;;;;;;;;20.30;35.70;;;;;;5157828;27;19915;-60
2021/12/06 06:38:37;;;;;;;;;;;20.30;35.60;;;;;;5157831;27;20353;-60
2021/12/06 06:41:03;;;;;;;;;;;20.40;35.60;;;;;;5157702;27;19907;-60
2021/12/06 06:43:29;;;;;;;;;;;20.40;35.60;;;;;;5157904;27;19961;-58
2021/12/06 06:45:54;;;;;;;;;;;20.40;35.50;;;;;;5157672;27;19954;-59
2021/12/06 06:48:20;;;;;;;;;;;20.40;35.50;;;;;;5157691;27;19922;-60
2021/12/06 06:50:45;;;;;;;;;;;20.40;35.50;;;;;;5157532;27;19920;-60
2021/12/06 06:53:11;;;;;;;;;;;20.40;35.50;;;;;;5157615;27;19998;-58
2021/12/06 06:55:36;;;;;;;;;;;20.40;35.50;;;;;;5157259;27;19907;-59
2021/12/06 06:58:02;;;;;;;;;;;20.40;35.50;;;;;;5157305;27;19964;-59
2021/12/06 07:00:37;;;;;;;;;;;20.40;35.50;;;;;;5157760;27;19957;-58
2021/12/06 07:03:04;;;;;;;;;;;20.50;35.50;;;;;;5157517;27;19914;-58
2021/12/06 07:05:29;;;;;;;;;;;20.40;35.50;;;;;;5157548;27;20025;-58
2021/12/06 07:07:55;;;;;;;;;;;20.50;35.50;;;;;;5157251;27;19958;-58
2021/12/06 07:10:23;;;;;;;;;;;20.40;35.50;;;;;;5157521;27;19912;-58
2021/12/06 07:12:50;;;;;;;;;;;20.50;35.50;;;;;;5157301;27;19907;-58
2021/12/06 07:15:18;;;;;;;;;;;20.50;35.50;;;;;;5156045;27;19911;-59
2021/12/06 07:17:44;;;;;;;;;;;20.40;35.20;;;;;;5133497;27;19947;-59
2021/12/06 07:20:10;;;;;;;;;;;19.50;35.10;;;;;;5138429;27;20034;-59
2021/12/06 07:22:36;;;;;;;;;;;18.70;36.00;;;;;;5141074;27;19912;-59
2021/12/06 07:25:02;;;;;;;;;;;18.40;36.40;;;;;;5135403;27;19907;-58
2021/12/06 07:27:28;;;;;;;;;;;18.20;36.60;;;;;;5135127;27;19916;-58
2021/12/06 07:29:53;;;;;;;;;;;18.00;36.90;;;;;;5134893;27;19912;-57
2021/12/06 07:32:19;;;;;;;;;;;18.70;36.30;;;;;;5135340;27;19990;-54
2021/12/06 07:34:44;;;;;;;;;;;19.40;35.80;;;;;;5135341;27;20328;-53
2021/12/06 07:37:09;;;;;;;;;;;19.80;35.80;;;;;;5135057;27;20006;-55
2021/12/06 07:39:35;;;;;;;;;;;20.00;35.70;;;;;;5134949;27;19907;-54
2021/12/06 07:42:00;;;;;;;;;;;20.10;35.70;;;;;;5133636;27;19915;-56
2021/12/06 07:44:26;;;;;;;;;;;20.20;35.60;;;;;;5143083;27;20373;-59
2021/12/06 07:46:52;;;;;;;;;;;20.30;35.50;;;;;;5134176;27;19907;-57
2021/12/06 07:49:18;;;;;;;;;;;20.30;35.50;;;;;;5134190;27;20651;-58
2021/12/06 07:51:44;;;;;;;;;;;20.30;35.40;;;;;;5115842;27;19914;-53
2021/12/06 07:54:10;;;;;;;;;;;20.30;35.50;;;;;;5134112;27;19907;-57
2021/12/06 07:56:35;;;;;;;;;;;20.40;35.50;;;;;;5134521;27;19912;-57
2021/12/06 07:59:01;;;;;;;;;;;20.40;35.40;;;;;;5132885;27;20278;-57
2021/12/06 08:01:27;;;;;;;;;;;20.40;35.40;;;;;;5134218;27;20267;-60
2021/12/06 08:03:53;;;;;;;;;;;20.40;35.50;;;;;;5140606;27;19918;-57
2021/12/06 08:06:19;;;;;;;;;;;20.50;35.60;;;;;;5151793;27;19911;-59
2021/12/06 08:08:45;;;;;;;;;;;20.50;35.60;;;;;;5142049;27;19930;-59
2021/12/06 08:11:14;;;;;;;;;;;20.50;35.50;;;;;;5133445;27;20318;-60
2021/12/06 08:13:42;;;;;;;;;;;20.50;35.50;;;;;;5143969;27;19933;-59
2021/12/06 08:16:17;;;;;;;;;;;20.50;35.60;;;;;;5144764;27;19911;-60
2021/12/06 08:18:44;;;;;;;;;;;20.50;35.60;;;;;;5149186;27;19923;-59
2021/12/06 08:21:10;;;;;;;;;;;20.50;35.50;;;;;;5143340;27;20299;-58
2021/12/06 08:23:35;;;;;;;;;;;20.50;35.60;;;;;;5142497;27;19933;-59
2021/12/06 08:26:03;;;;;;;;;;;20.50;35.60;;;;;;5147518;27;19915;-58
2021/12/06 08:28:31;;;;;;;;;;;20.60;35.50;;;;;;5150804;27;19946;-58
2021/12/06 08:30:56;;;;;;;;;;;20.60;35.50;;;;;;5147468;27;19915;-59
2021/12/06 08:33:22;;;;;;;;;;;20.60;35.50;;;;;;5141025;27;19912;-59
2021/12/06 08:35:52;;;;;;;;;;;20.60;35.50;;;;;;5151519;27;20015;-59
2021/12/06 08:38:18;;;;;;;;;;;20.60;35.50;;;;;;5140251;27;19918;-59
2021/12/06 08:40:44;;;;;;;;;;;20.60;35.60;;;;;;5145692;27;19908;-59
2021/12/06 08:43:17;;;;;;;;;;;20.70;35.60;;;;;;5150737;27;19911;-59
2021/12/06 08:45:47;;;;;;;;;;;20.70;35.50;;;;;;5138343;27;19918;-56
2021/12/06 08:48:12;;;;;;;;;;;20.70;35.60;;;;;;5148903;27;19919;-59
2021/12/06 08:50:38;;;;;;;;;;;20.70;35.50;;;;;;5153048;27;19934;-59
2021/12/06 08:53:03;;;;;;;;;;;20.70;35.60;;;;;;5147277;27;19956;-55
2021/12/06 08:55:29;;;;;;;;;;;20.70;35.60;;;;;;5144171;27;20354;-58
2021/12/06 08:57:55;;;;;;;;;;;20.80;35.60;;;;;;5134879;27;19911;-58
2021/12/06 09:00:23;;;;;;;;;;;20.80;35.50;;;;;;5153623;27;19919;-58
2021/12/06 09:02:49;;;;;;;;;;;20.80;35.50;;;;;;5151899;27;19911;-59
2021/12/06 09:05:15;;;;;;;;;;;20.80;35.60;;;;;;5151212;27;19963;-60
2021/12/06 09:07:40;;;;;;;;;;;20.80;35.60;;;;;;5145292;27;19915;-59
2021/12/06 09:10:10;;;;;;;;;;;20.80;35.50;;;;;;5132857;27;20362;-59
2021/12/06 09:12:36;;;;;;;;;;;20.80;35.60;;;;;;5143005;27;20379;-59
2021/12/06 09:15:03;;;;;;;;;;;20.80;35.60;;;;;;5139228;27;20370;-60
2021/12/06 09:17:29;;;;;;;;;;;20.90;35.60;;;;;;5153438;27;19994;-59
2021/12/06 09:19:55;;;;;;;;;;;20.80;35.70;;;;;;5151920;27;19958;-59
2021/12/06 09:22:21;;;;;;;;;;;20.90;35.70;;;;;;5136874;27;19934;-59
2021/12/06 09:24:47;;;;;;;;;;;20.90;35.60;;;;;;5148343;27;19911;-57
2021/12/06 09:27:13;;;;;;;;;;;20.90;35.60;;;;;;5144159;27;19922;-58
2021/12/06 09:29:40;;;;;;;;;;;20.90;35.60;;;;;;5145600;27;19915;-58
2021/12/06 09:32:07;;;;;;;;;;;21.00;35.60;;;;;;5152778;27;19915;-57
2021/12/06 09:34:33;;;;;;;;;;;21.00;35.60;;;;;;5128451;27;20263;-57
2021/12/06 09:36:59;;;;;;;;;;;21.00;35.60;;;;;;5150168;27;19921;-58
2021/12/06 09:39:24;;;;;;;;;;;21.00;35.70;;;;;;5132504;28;20357;-58
2021/12/06 09:41:50;;;;;;;;;;;21.00;35.70;;;;;;5132394;28;19912;-57
2021/12/06 09:44:16;;;;;;;;;;;21.00;35.70;;;;;;5131565;28;20445;-57
2021/12/06 09:46:42;;;;;;;;;;;21.00;35.70;;;;;;5131482;27;20021;-58
2021/12/06 09:49:13;;;;;;;;;;;21.00;35.50;;;;;;5140740;27;20010;-58
2021/12/06 09:51:40;;;;;;;;;;;21.10;35.50;;;;;;5135188;27;19922;-57
2021/12/06 09:54:06;;;;;;;;;;;21.10;35.40;;;;;;5138060;27;20374;-57
2021/12/06 09:56:33;;;;;;;;;;;21.10;35.50;;;;;;5152641;27;19958;-58
2021/12/06 09:59:00;;;;;;;;;;;21.10;35.60;;;;;;5144370;27;19926;-57
2021/12/06 10:01:29;;;;;;;;;;;21.10;35.70;;;;;;5136250;27;19922;-59
2021/12/06 10:03:58;;;;;;;;;;;21.00;35.70;;;;;;5136744;27;19911;-59
2021/12/06 10:06:26;;;;;;;;;;;21.00;35.60;;;;;;5135647;27;19907;-58
2021/12/06 10:08:53;;;;;;;;;;;21.10;35.70;;;;;;5135815;27;19922;-58
2021/12/06 10:11:19;;;;;;;;;;;21.10;35.60;;;;;;5140654;27;19911;-59
2021/12/06 10:13:44;;;;;;;;;;;21.20;35.60;;;;;;5135508;27;20282;-58
2021/12/06 10:16:10;;;;;;;;;;;21.20;35.50;;;;;;5154023;27;19911;-59
2021/12/06 10:18:36;;;;;;;;;;;21.20;35.60;;;;;;5156104;27;19911;-59
2021/12/06 10:21:02;;;;;;;;;;;21.20;35.60;;;;;;5141031;27;20327;-59
2021/12/06 10:23:28;;;;;;;;;;;21.30;35.50;;;;;;5148031;27;20008;-59
2021/12/06 10:25:54;;;;;;;;;;;21.30;35.50;;;;;;5149199;27;19955;-59
2021/12/06 10:28:23;;;;;;;;;;;21.30;35.60;;;;;;5144629;27;19923;-59
2021/12/06 10:30:51;;;;;;;;;;;21.30;35.70;;;;;;5136594;27;19912;-59
2021/12/06 10:33:18;;;;;;;;;;;21.30;35.80;;;;;;5137826;27;19921;-59
2021/12/06 10:35:46;;;;;;;;;;;21.20;35.80;;;;;;5148966;27;19915;-58
2021/12/06 10:38:17;;;;;;;;;;;21.30;35.80;;;;;;5149336;27;19907;-57
2021/12/06 10:40:42;;;;;;;;;;;21.30;35.80;;;;;;5134855;27;20326;-59
2021/12/06 10:43:10;;;;;;;;;;;21.30;35.80;;;;;;5143514;27;19950;-57
2021/12/06 10:45:37;;;;;;;;;;;21.30;35.80;;;;;;5154815;27;20437;-59
2021/12/06 10:48:07;;;;;;;;;;;21.40;35.80;;;;;;5151191;27;19916;-58
2021/12/06 10:50:33;;;;;;;;;;;21.40;35.80;;;;;;5145344;27;20482;-58
2021/12/06 10:53:00;;;;;;;;;;;21.40;35.80;;;;;;5148715;27;19911;-60
2021/12/06 10:55:28;;;;;;;;;;;21.40;35.80;;;;;;5136811;27;19963;-55
2021/12/06 10:57:57;;;;;;;;;;;21.40;35.80;;;;;;5145211;27;20013;-53
2021/12/06 11:00:42;;;;;;;;;;;21.40;35.70;;;;;;5155071;27;19919;-52
2021/12/06 11:03:24;;;;;;;;;;;21.40;35.80;;;;;;5139866;27;21207;-53
2021/12/06 11:05:51;;;;;;;;;;;21.40;35.70;;;;;;5135361;27;19919;-58
2021/12/06 11:08:18;;;;;;;;;;;21.40;35.80;;;;;;5154105;27;20476;-58
2021/12/06 11:10:58;;;;;;;;;;;21.50;35.70;;;;;;5152084;27;19919;-57
2021/12/06 11:13:26;;;;;;;;;;;21.50;35.70;;;;;;5134853;27;19915;-57
2021/12/06 11:16:06;;;;;;;;;;;21.40;35.70;;;;;;5134766;27;19989;-55
2021/12/06 11:18:48;;;;;;;;;;;21.40;35.70;;;;;;5134440;27;19965;-55
2021/12/06 11:21:29;;;;;;;;;;;21.40;35.80;;;;;;5139279;27;19950;-53
2021/12/06 11:23:56;;;;;;;;;;;21.40;35.90;;;;;;5116464;27;20290;-52
2021/12/06 11:26:21;;;;;;;;;;;21.40;35.90;;;;;;5142329;27;20355;-54
2021/12/06 11:28:47;;;;;;;;;;;21.50;35.70;;;;;;5133273;27;19930;-53
2021/12/06 11:31:14;;;;;;;;;;;21.50;35.80;;;;;;5132976;27;20422;-51
2021/12/06 11:33:40;;;;;;;;;;;21.50;35.80;;;;;;5151198;27;19918;-50
2021/12/06 11:36:17;;;;;;;;;;;21.50;35.80;;;;;;5142488;27;19911;-52
2021/12/06 11:38:46;;;;;;;;;;;21.50;35.70;;;;;;5153365;27;19952;-57
2021/12/06 11:41:12;;;;;;;;;;;21.50;35.70;;;;;;5152466;27;20435;-56
2021/12/06 11:43:38;;;;;;;;;;;21.50;35.80;;;;;;5154916;27;19945;-58
2021/12/06 11:46:04;;;;;;;;;;;21.50;35.80;;;;;;5149532;27;20273;-59
2021/12/06 11:48:35;;;;;;;;;;;21.50;35.90;;;;;;5153971;27;20269;-58
2021/12/06 11:51:03;;;;;;;;;;;21.50;35.90;;;;;;5152263;27;19931;-54
2021/12/06 11:53:34;;;;;;;;;;;21.50;35.90;;;;;;5154498;27;20346;-59
2021/12/06 11:56:02;;;;;;;;;;;21.50;36.00;;;;;;5149961;27;19918;-50
2021/12/06 11:58:33;;;;;;;;;;;21.50;35.90;;;;;;5154583;27;19922;-55
2021/12/06 12:01:08;;;;;;;;;;;21.50;36.00;;;;;;5136048;27;20394;-58
2021/12/06 12:03:34;;;;;;;;;;;21.60;36.00;;;;;;5151944;27;20544;-56
2021/12/06 12:05:59;;;;;;;;;;;21.50;36.00;;;;;;5153463;27;19911;-57
2021/12/06 12:08:30;;;;;;;;;;;21.60;36.10;;;;;;5155054;27;20374;-58
2021/12/06 12:10:55;;;;;;;;;;;21.60;36.10;;;;;;5152163;27;20052;-56
2021/12/06 12:13:25;;;;;;;;;;;21.70;36.10;;;;;;5144950;27;19999;-55
2021/12/06 12:15:55;;;;;;;;;;;21.70;36.20;;;;;;5142166;27;19911;-57
2021/12/06 12:18:22;;;;;;;;;;;21.70;36.20;;;;;;5146161;27;19994;-53
2021/12/06 12:20:48;;;;;;;;;;;21.70;36.30;;;;;;5135711;27;19911;-59
2021/12/06 12:23:14;;;;;;;;;;;21.60;36.30;;;;;;5152431;27;19911;-54
2021/12/06 12:26:01;;;;;;;;;;;21.70;36.20;;;;;;5152016;27;20013;-53
2021/12/06 12:28:35;;;;;;;;;;;21.60;36.20;;;;;;5137233;27;19919;-54
2021/12/06 12:31:00;;;;;;;;;;;21.70;36.20;;;;;;5133342;27;19919;-57
2021/12/06 12:33:27;;;;;;;;;;;21.70;36.20;;;;;;5136996;27;19911;-57
2021/12/06 12:35:55;;;;;;;;;;;21.70;36.20;;;;;;5133218;27;19918;-54
2021/12/06 12:38:22;;;;;;;;;;;21.70;36.20;;;;;;5137009;27;19919;-55
2021/12/06 12:40:50;;;;;;;;;;;21.60;36.20;;;;;;5148238;27;20377;-57
2021/12/06 12:43:21;;;;;;;;;;;21.70;36.20;;;;;;5150277;27;19965;-54
2021/12/06 12:45:49;;;;;;;;;;;21.70;36.20;;;;;;5137122;27;19916;-53
2021/12/06 12:48:20;;;;;;;;;;;21.70;36.20;;;;;;5133159;27;19922;-55
2021/12/06 12:51:04;;;;;;;;;;;21.70;36.20;;;;;;5132779;27;19923;-57
2021/12/06 12:53:43;;;;;;;;;;;21.70;36.20;;;;;;5132970;27;19914;-56
2021/12/06 12:56:38;;;;;;;;;;;21.70;36.20;;;;;;5136042;27;20021;-56
2021/12/06 12:59:23;;;;;;;;;;;21.70;36.10;;;;;;5115379;27;19942;-56
2021/12/06 13:02:08;;;;;;;;;;;20.20;34.80;;;;;;5135791;27;19918;-54
2021/12/06 13:04:52;;;;;;;;;;;19.40;37.00;;;;;;5131561;27;19935;-56
2021/12/06 13:07:17;;;;;;;;;;;20.40;36.10;;;;;;5142808;27;19962;-49
2021/12/06 13:09:43;;;;;;;;;;;21.00;36.30;;;;;;5140683;27;20019;-55
2021/12/06 13:12:08;;;;;;;;;;;21.30;35.80;;;;;;5139461;27;20250;-54
2021/12/06 13:14:40;;;;;;;;;;;21.50;35.70;;;;;;5140727;27;19915;-57
2021/12/06 13:17:10;;;;;;;;;;;21.50;35.80;;;;;;5132348;27;19931;-58
2021/12/06 13:19:54;;;;;;;;;;;21.50;35.80;;;;;;5135325;27;19915;-57
2021/12/06 13:22:29;;;;;;;;;;;21.60;35.80;;;;;;5132388;28;19934;-55
2021/12/06 13:24:59;;;;;;;;;;;21.60;35.90;;;;;;5132348;27;19912;-56
2021/12/06 13:27:30;;;;;;;;;;;21.60;35.80;;;;;;5140420;27;19922;-54
2021/12/06 13:29:55;;;;;;;;;;;21.60;35.80;;;;;;5150690;27;20066;-54
2021/12/06 13:32:30;;;;;;;;;;;21.60;35.90;;;;;;5134924;27;20005;-55
2021/12/06 13:35:13;;;;;;;;;;;21.70;35.80;;;;;;5136662;27;19915;-56
2021/12/06 13:37:38;;;;;;;;;;;21.70;35.80;;;;;;5149598;27;19914;-55
2021/12/06 13:40:18;;;;;;;;;;;21.70;35.90;;;;;;5136971;27;19916;-55
2021/12/06 13:42:44;;;;;;;;;;;21.80;35.80;;;;;;5117797;27;20407;-57
2021/12/06 13:45:36;;;;;;;;;;;21.70;35.80;;;;;;5155303;27;19915;-53
2021/12/06 13:48:22;;;;;;;;;;;21.80;35.80;;;;;;5146720;27;20335;-57
2021/12/06 13:50:48;;;;;;;;;;;21.70;35.90;;;;;;5155379;27;19922;-52
2021/12/06 13:53:21;;;;;;;;;;;21.80;35.90;;;;;;5155320;27;19918;-53
2021/12/06 13:55:49;;;;;;;;;;;21.80;36.00;;;;;;5155085;27;20047;-56
2021/12/06 13:58:14;;;;;;;;;;;21.80;36.00;;;;;;5148745;27;19911;-57
2021/12/06 14:00:47;;;;;;;;;;;21.80;35.90;;;;;;5152706;27;19971;-57
2021/12/06 14:03:14;;;;;;;;;;;21.70;36.00;;;;;;5154290;27;19907;-57
2021/12/06 14:05:41;;;;;;;;;;;21.60;36.00;;;;;;5148189;27;19915;-58
2021/12/06 14:08:06;;;;;;;;;;;21.70;35.80;;;;;;5131442;27;19926;-54
2021/12/06 14:10:33;;;;;;;;;;;21.70;35.80;;;;;;5155968;27;19907;-52
2021/12/06 14:12:59;;;;;;;;;;;21.80;35.90;;;;;;5148555;27;20367;-54
2021/12/06 14:15:49;;;;;;;;;;;21.80;35.90;;;;;;5135063;27;19915;-56
2021/12/06 14:18:17;;;;;;;;;;;21.80;36.00;;;;;;5151376;27;20358;-54
2021/12/06 14:20:51;;;;;;;;;;;21.80;36.00;;;;;;5137770;27;20343;-52
2021/12/06 14:23:18;;;;;;;;;;;21.90;36.00;;;;;;5147495;27;20555;-56
2021/12/06 14:25:49;;;;;;;;;;;22.00;35.90;;;;;;5126509;27;19985;-54
2021/12/06 14:28:17;;;;;;;;;;;21.90;36.00;;;;;;5142921;27;19915;-56